Time;durP1;ratioP1;P1;durP2;ratioP2;P2;SDS_P1;SDS_P2;PMS_P1;PMS_P2;Temp;Humidity;BMP_temperature;BMP_pressure;BME280_temperature;BME280_humidity;BME280_pressure;Samples;Min_cycle;Max_cycle;Signal;HPM_P1;HPM_P2
2024/02/23 00:01:34;;;;;;;0.30;0.30;;;7.40;87.30;;;;;;9181965;19;20476;-70
2024/02/23 00:04:44;;;;;;;2.42;0.30;;;7.40;87.50;;;;;;9182098;19;20144;-71
2024/02/23 00:07:50;;;;;;;2.97;0.30;;;7.40;87.10;;;;;;9179491;19;20033;-70
2024/02/23 00:10:57;;;;;;;0.32;0.30;;;7.30;87.30;;;;;;9181857;19;20484;-70
2024/02/23 00:14:03;;;;;;;0.93;0.40;;;7.30;87.30;;;;;;9180643;19;20203;-71
2024/02/23 00:17:11;;;;;;;2.60;0.38;;;7.20;87.30;;;;;;9180116;19;20025;-70
2024/02/23 00:20:19;;;;;;;0.13;0.10;;;7.10;87.40;;;;;;9180175;19;20022;-71
2024/02/23 00:23:28;;;;;;;0.47;0.40;;;7.10;87.40;;;;;;9179634;19;20377;-71
2024/02/23 00:26:34;;;;;;;0.10;0.10;;;7.00;87.50;;;;;;9180022;19;20026;-70
2024/02/23 00:29:41;;;;;;;2.85;0.52;;;7.00;87.50;;;;;;9177973;19;20014;-70
2024/02/23 00:32:47;;;;;;;0.85;0.30;;;6.90;87.70;;;;;;9180364;19;20003;-70
2024/02/23 00:35:57;;;;;;;0.55;0.40;;;6.90;87.80;;;;;;9178718;19;20019;-70
2024/02/23 00:39:02;;;;;;;0.20;0.20;;;6.80;87.60;;;;;;9179596;19;20088;-70
2024/02/23 00:42:10;;;;;;;0.22;0.22;;;6.80;87.40;;;;;;9177724;19;20014;-70
2024/02/23 00:45:15;;;;;;;0.77;0.30;;;6.70;87.40;;;;;;9178095;19;20026;-70
2024/02/23 00:48:23;;;;;;;0.32;0.30;;;6.60;87.40;;;;;;9179002;19;20014;-70
2024/02/23 00:51:31;;;;;;;1.25;0.40;;;6.60;87.50;;;;;;9177721;19;20018;-70
2024/02/23 00:54:39;;;;;;;0.43;0.43;;;6.50;87.50;;;;;;9173924;19;20022;-70
2024/02/23 00:57:45;;;;;;;2.00;0.50;;;6.50;87.30;;;;;;9175292;19;20482;-70
2024/02/23 01:00:52;;;;;;;2.28;0.50;;;6.40;87.50;;;;;;9176766;19;20025;-70
2024/02/23 01:03:58;;;;;;;2.78;0.55;;;6.40;87.40;;;;;;9179144;19;20022;-70
2024/02/23 01:07:08;;;;;;;2.03;0.60;;;6.30;87.40;;;;;;9177020;19;20018;-70
2024/02/23 01:10:14;;;;;;;1.52;0.63;;;6.30;87.40;;;;;;9177972;19;20472;-69
2024/02/23 01:13:21;;;;;;;0.82;0.43;;;6.30;87.70;;;;;;9178632;19;20023;-69
2024/02/23 01:16:27;;;;;;;3.22;0.95;;;6.30;87.60;;;;;;9176535;19;20040;-69
2024/02/23 01:19:35;;;;;;;5.75;1.10;;;6.20;87.40;;;;;;9177169;19;20007;-69
2024/02/23 01:22:43;;;;;;;1.33;0.88;;;6.20;87.80;;;;;;9177787;19;20003;-69
2024/02/23 01:25:50;;;;;;;4.00;0.80;;;6.20;87.70;;;;;;9178044;19;20540;-72
2024/02/23 01:28:56;;;;;;;1.83;0.90;;;6.10;87.80;;;;;;9178427;19;20017;-70
2024/02/23 01:32:04;;;;;;;3.97;1.10;;;6.10;87.80;;;;;;9178635;19;20085;-70
2024/02/23 01:35:10;;;;;;;5.53;0.90;;;6.10;87.90;;;;;;9175299;19;20081;-70
2024/02/23 01:38:22;;;;;;;5.88;1.10;;;6.10;87.70;;;;;;9177516;19;20706;-71
2024/02/23 01:41:27;;;;;;;5.18;1.30;;;6.10;87.90;;;;;;9176792;19;20471;-70
2024/02/23 01:44:36;;;;;;;5.63;1.45;;;6.10;87.80;;;;;;9176706;19;20015;-69
2024/02/23 01:47:41;;;;;;;13.98;1.80;;;6.10;87.90;;;;;;9177043;19;20038;-70
2024/02/23 01:50:49;;;;;;;3.90;1.80;;;6.10;88.00;;;;;;9174744;19;20016;-69
2024/02/23 01:53:58;;;;;;;8.10;1.50;;;6.10;88.00;;;;;;9176901;19;20780;-69
2024/02/23 01:57:06;;;;;;;7.32;1.45;;;6.10;88.20;;;;;;9174746;19;20037;-69
2024/02/23 02:00:32;;;;;;;2.95;1.50;;;6.10;88.30;;;;;;9176736;19;20429;-69
2024/02/23 02:03:41;;;;;;;3.80;1.38;;;6.10;88.20;;;;;;9175254;19;20022;-69
2024/02/23 02:06:52;;;;;;;4.07;1.05;;;6.10;88.20;;;;;;9176211;19;20021;-70
2024/02/23 02:10:03;;;;;;;9.38;1.40;;;6.10;88.20;;;;;;9174214;19;20074;-69
2024/02/23 02:13:09;;;;;;;5.82;1.25;;;6.00;88.10;;;;;;9174544;19;20027;-70
2024/02/23 02:16:17;;;;;;;6.40;1.52;;;6.10;88.10;;;;;;9174575;19;20048;-70
2024/02/23 02:19:23;;;;;;;4.97;1.13;;;6.00;88.10;;;;;;9173940;19;20018;-70
2024/02/23 02:22:30;;;;;;;3.63;0.80;;;6.00;88.30;;;;;;9176265;19;20022;-71
2024/02/23 02:25:38;;;;;;;3.65;1.17;;;6.00;88.10;;;;;;9176409;19;20015;-70
2024/02/23 02:28:46;;;;;;;3.65;1.00;;;6.00;88.10;;;;;;9175654;19;20018;-70
2024/02/23 02:31:51;;;;;;;2.47;1.08;;;5.90;88.10;;;;;;9175014;19;20482;-73
2024/02/23 02:34:59;;;;;;;3.70;0.80;;;5.90;88.00;;;;;;9175459;19;20025;-71
2024/02/23 02:38:05;;;;;;;4.13;0.70;;;6.00;88.10;;;;;;9172774;19;20038;-71
2024/02/23 02:41:15;;;;;;;2.65;0.57;;;5.90;88.10;;;;;;9174859;19;20018;-71
2024/02/23 02:44:21;;;;;;;0.95;0.50;;;5.90;88.10;;;;;;9175327;19;20014;-72
2024/02/23 02:47:28;;;;;;;4.85;0.73;;;5.90;88.00;;;;;;9180102;19;20018;-72
2024/02/23 02:50:35;;;;;;;1.42;0.57;;;5.90;88.10;;;;;;9184153;19;20006;-71
2024/02/23 02:53:43;;;;;;;3.30;0.77;;;5.80;87.90;;;;;;9185241;19;20021;-71
2024/02/23 02:56:54;;;;;;;2.05;0.70;;;5.90;88.10;;;;;;9182215;19;20511;-71
2024/02/23 03:00:01;;;;;;;1.52;0.73;;;5.90;88.40;;;;;;9179588;19;20007;-71
2024/02/23 03:03:07;;;;;;;5.30;1.15;;;5.90;88.20;;;;;;9182957;19;20010;-71
2024/02/23 03:06:15;;;;;;;4.15;1.30;;;5.90;88.20;;;;;;9183652;19;20095;-71
2024/02/23 03:09:21;;;;;;;2.85;1.38;;;5.90;87.90;;;;;;9180983;19;20022;-72
2024/02/23 03:12:31;;;;;;;6.18;1.48;;;5.90;88.10;;;;;;9183670;19;20014;-70
2024/02/23 03:15:36;;;;;;;1.98;1.60;;;5.90;88.00;;;;;;9179361;19;20410;-71
2024/02/23 03:18:44;;;;;;;3.70;1.70;;;5.90;88.90;;;;;;9183144;19;20052;-70
2024/02/23 03:21:49;;;;;;;7.38;1.77;;;5.80;87.80;;;;;;9182347;19;20860;-70
2024/02/23 03:24:57;;;;;;;5.00;2.20;;;5.90;88.00;;;;;;9181252;19;20496;-70
2024/02/23 03:28:05;;;;;;;8.13;2.50;;;5.80;87.90;;;;;;9183044;19;20567;-70
2024/02/23 03:31:13;;;;;;;6.97;2.70;;;5.80;87.90;;;;;;9182456;19;20018;-70
2024/02/23 03:34:18;;;;;;;7.90;2.30;;;5.80;88.00;;;;;;9182333;19;20022;-70
2024/02/23 03:37:26;;;;;;;9.20;2.10;;;5.80;88.10;;;;;;9180105;19;20873;-70
2024/02/23 03:40:32;;;;;;;6.70;1.90;;;5.80;88.20;;;;;;9181632;19;20021;-70
2024/02/23 03:43:42;;;;;;;9.23;1.92;;;6.00;88.50;;;;;;9178571;19;20010;-70
2024/02/23 03:46:48;;;;;;;9.80;1.90;;;5.90;88.40;;;;;;9181782;19;20018;-70
2024/02/23 03:49:55;;;;;;;8.23;2.35;;;5.90;88.40;;;;;;9181275;19;20033;-70
2024/02/23 03:53:01;;;;;;;13.32;2.22;;;5.90;88.60;;;;;;9181394;19;20017;-71
2024/02/23 03:56:09;;;;;;;7.85;1.45;;;6.00;88.70;;;;;;9179744;19;20021;-70
2024/02/23 03:59:17;;;;;;;8.05;1.83;;;6.00;88.40;;;;;;9177793;19;20014;-70
2024/02/23 04:02:25;;;;;;;9.77;2.00;;;6.00;88.60;;;;;;9180806;19;20011;-69
2024/02/23 04:05:30;;;;;;;4.68;1.40;;;6.00;88.60;;;;;;9181437;19;20011;-69
2024/02/23 04:08:38;;;;;;;7.43;1.63;;;6.10;88.50;;;;;;9177486;19;20014;-69
2024/02/23 04:11:43;;;;;;;5.47;1.67;;;6.10;88.50;;;;;;9181005;19;20019;-69
2024/02/23 04:14:54;;;;;;;13.25;2.05;;;6.10;88.50;;;;;;9180827;19;20029;-70
2024/02/23 04:17:59;;;;;;;7.07;1.98;;;6.10;88.60;;;;;;9179562;19;20014;-70
2024/02/23 04:21:07;;;;;;;10.38;1.85;;;6.10;88.30;;;;;;9180846;19;20025;-70
2024/02/23 04:24:12;;;;;;;7.07;1.60;;;6.10;88.40;;;;;;9179159;19;20017;-69
2024/02/23 04:27:20;;;;;;;8.32;1.65;;;6.20;88.50;;;;;;9179597;19;20368;-71
2024/02/23 04:30:28;;;;;;;9.27;1.73;;;6.20;88.60;;;;;;9179683;19;20703;-70
2024/02/23 04:33:37;;;;;;;9.70;1.70;;;6.20;88.50;;;;;;9179621;19;20018;-70
2024/02/23 04:36:43;;;;;;;3.53;1.38;;;6.20;89.10;;;;;;9178661;19;20011;-71
2024/02/23 04:39:50;;;;;;;5.57;1.35;;;6.30;88.60;;;;;;9177607;19;20781;-70
2024/02/23 04:42:56;;;;;;;5.43;1.60;;;6.20;88.50;;;;;;9179333;19;20019;-70
2024/02/23 04:46:06;;;;;;;7.22;1.48;;;6.30;88.30;;;;;;9178851;19;20369;-70
2024/02/23 04:49:14;;;;;;;10.63;2.17;;;6.40;88.40;;;;;;9178962;19;20048;-70
2024/02/23 04:52:21;;;;;;;7.18;1.58;;;6.30;88.30;;;;;;9179132;19;20011;-70
2024/02/23 04:55:27;;;;;;;7.32;1.67;;;6.30;88.50;;;;;;9179494;19;20024;-70
2024/02/23 04:58:35;;;;;;;9.20;1.77;;;6.20;88.20;;;;;;9173166;19;20393;-70
2024/02/23 05:01:43;;;;;;;5.93;1.92;;;6.20;88.10;;;;;;9179416;19;20044;-70
2024/02/23 05:04:51;;;;;;;4.90;1.35;;;6.30;88.20;;;;;;9179736;19;20022;-70
2024/02/23 05:07:56;;;;;;;8.90;1.75;;;6.30;88.30;;;;;;9175081;19;20142;-70
2024/02/23 05:11:04;;;;;;;9.40;1.90;;;6.30;88.20;;;;;;9177900;19;20014;-69
2024/02/23 05:14:09;;;;;;;11.05;1.65;;;6.30;88.30;;;;;;9179159;19;20369;-71
2024/02/23 05:17:20;;;;;;;11.30;1.40;;;6.30;88.00;;;;;;9177593;19;20022;-71
2024/02/23 05:20:25;;;;;;;5.65;1.65;;;6.30;88.30;;;;;;9179211;19;20409;-70
2024/02/23 05:23:33;;;;;;;5.57;2.17;;;6.30;88.00;;;;;;9179425;19;20019;-70
2024/02/23 05:26:38;;;;;;;6.50;1.38;;;6.30;87.90;;;;;;9179521;19;20018;-70
2024/02/23 05:29:46;;;;;;;6.13;1.45;;;6.30;87.90;;;;;;9179465;19;20036;-70
2024/02/23 05:32:54;;;;;;;13.50;2.10;;;6.30;88.10;;;;;;9178671;19;20018;-70
2024/02/23 05:36:02;;;;;;;7.28;1.52;;;6.30;88.10;;;;;;9175916;19;20627;-69
2024/02/23 05:39:07;;;;;;;11.20;1.90;;;6.30;88.00;;;;;;9173915;19;20006;-70
2024/02/23 05:42:15;;;;;;;6.28;1.60;;;6.30;88.00;;;;;;9174989;19;20827;-69
2024/02/23 05:45:20;;;;;;;12.23;2.13;;;6.30;88.00;;;;;;9176879;19;20038;-69
2024/02/23 05:48:30;;;;;;;7.20;1.80;;;6.30;88.20;;;;;;9177218;19;20018;-69
2024/02/23 05:51:36;;;;;;;7.93;1.80;;;6.20;88.10;;;;;;9176995;19;20014;-70
2024/02/23 05:54:44;;;;;;;7.30;1.50;;;6.30;88.00;;;;;;9178140;19;20022;-69
2024/02/23 05:57:50;;;;;;;8.18;1.85;;;6.30;88.00;;;;;;9172580;19;20492;-69
2024/02/23 06:00:58;;;;;;;9.00;1.60;;;6.30;88.00;;;;;;9176863;19;20029;-70
2024/02/23 06:04:06;;;;;;;11.60;1.80;;;6.30;88.00;;;;;;9175298;19;20014;-71
2024/02/23 06:07:13;;;;;;;3.30;1.35;;;6.30;88.10;;;;;;9174798;19;20408;-72
2024/02/23 06:10:19;;;;;;;10.38;2.20;;;6.30;88.30;;;;;;9174052;19;20018;-70
2024/02/23 06:13:26;;;;;;;6.03;1.13;;;6.30;88.10;;;;;;9172795;19;20018;-69
2024/02/23 06:16:32;;;;;;;8.80;1.92;;;6.40;88.20;;;;;;9172926;19;20014;-70
2024/02/23 06:19:42;;;;;;;6.55;1.50;;;6.40;88.10;;;;;;9171671;19;20683;-70
2024/02/23 06:22:47;;;;;;;2.85;1.48;;;6.40;88.20;;;;;;9170384;19;20019;-70
2024/02/23 06:25:55;;;;;;;7.45;1.50;;;6.30;87.90;;;;;;9173086;19;20048;-70
2024/02/23 06:29:01;;;;;;;7.70;1.38;;;6.30;88.00;;;;;;9175640;19;20029;-70
2024/02/23 06:32:09;;;;;;;12.93;3.15;;;6.40;87.90;;;;;;9173811;19;20653;-70
2024/02/23 06:35:17;;;;;;;8.20;1.35;;;6.40;87.90;;;;;;9174726;19;20014;-70
2024/02/23 06:38:25;;;;;;;5.20;1.95;;;6.40;87.90;;;;;;9174673;19;20014;-70
2024/02/23 06:41:31;;;;;;;4.35;1.85;;;6.40;88.50;;;;;;9175887;19;20014;-70
2024/02/23 06:44:38;;;;;;;7.63;2.05;;;6.40;87.80;;;;;;9174253;19;20046;-70
2024/02/23 06:47:44;;;;;;;6.00;1.83;;;6.40;87.90;;;;;;9175114;19;20637;-70
2024/02/23 06:50:54;;;;;;;7.18;1.45;;;6.50;87.90;;;;;;9175013;19;20019;-70
2024/02/23 06:54:00;;;;;;;11.40;1.33;;;6.40;87.70;;;;;;9174551;19;20019;-70
2024/02/23 06:57:07;;;;;;;10.90;2.03;;;6.40;87.70;;;;;;9172510;19;20022;-70
2024/02/23 07:00:14;;;;;;;10.85;1.58;;;6.50;87.80;;;;;;9170469;19;20030;-70
2024/02/23 07:03:21;;;;;;;13.23;1.73;;;6.50;87.70;;;;;;9174543;19;20019;-70
2024/02/23 07:06:31;;;;;;;6.68;1.35;;;6.50;87.80;;;;;;9172229;19;20019;-70
2024/02/23 07:09:38;;;;;;;13.50;1.30;;;6.60;87.90;;;;;;9170929;19;20026;-70
2024/02/23 07:12:44;;;;;;;10.45;1.10;;;6.50;87.80;;;;;;9173898;19;20048;-70
2024/02/23 07:15:51;;;;;;;4.43;1.40;;;6.60;87.80;;;;;;9173130;19;20014;-70
2024/02/23 07:18:57;;;;;;;13.32;2.28;;;6.50;87.70;;;;;;9172039;19;20021;-70
2024/02/23 07:22:07;;;;;;;11.52;2.55;;;6.60;87.70;;;;;;9173891;19;20018;-70
2024/02/23 07:25:13;;;;;;;4.15;1.50;;;6.60;87.80;;;;;;9174028;19;20462;-70
2024/02/23 07:28:22;;;;;;;9.02;1.08;;;6.60;87.70;;;;;;9171136;19;20013;-70
2024/02/23 07:31:28;;;;;;;3.13;1.10;;;6.60;87.80;;;;;;9175333;19;20470;-70
2024/02/23 07:34:36;;;;;;;6.75;1.08;;;6.60;87.60;;;;;;9183066;19;20386;-70
2024/02/23 07:37:44;;;;;;;5.82;1.77;;;6.60;87.70;;;;;;9181985;19;20062;-70
2024/02/23 07:40:51;;;;;;;4.13;0.60;;;6.70;87.80;;;;;;9178853;19;20010;-70
2024/02/23 07:43:57;;;;;;;6.13;1.00;;;6.80;88.10;;;;;;9181255;19;20014;-70
2024/02/23 07:47:05;;;;;;;9.10;1.27;;;6.90;88.00;;;;;;9181828;19;20026;-70
2024/02/23 07:50:12;;;;;;;10.52;1.25;;;6.80;87.90;;;;;;9181560;19;20020;-70
2024/02/23 07:53:22;;;;;;;6.97;1.42;;;6.90;87.90;;;;;;9180932;19;20018;-70
2024/02/23 07:56:29;;;;;;;7.90;1.60;;;7.00;88.00;;;;;;9180840;19;20018;-70
2024/02/23 07:59:37;;;;;;;4.50;1.15;;;7.00;88.00;;;;;;9175059;19;20034;-70
2024/02/23 08:02:45;;;;;;;10.77;1.17;;;7.10;87.90;;;;;;9178318;19;20105;-70
2024/02/23 08:05:53;;;;;;;4.00;0.90;;;7.20;87.90;;;;;;9181406;19;20022;-70
2024/02/23 08:09:01;;;;;;;4.95;0.82;;;7.20;87.90;;;;;;9177699;19;20010;-70
2024/02/23 08:12:11;;;;;;;6.75;1.20;;;7.30;87.80;;;;;;9181228;19;20366;-70
2024/02/23 08:15:16;;;;;;;9.07;1.50;;;7.40;87.70;;;;;;9180984;19;20048;-70
2024/02/23 08:18:25;;;;;;;9.80;1.23;;;7.40;87.60;;;;;;9181611;19;20030;-70
2024/02/23 08:21:30;;;;;;;6.43;1.40;;;7.40;87.40;;;;;;9180062;19;20015;-70
2024/02/23 08:24:40;;;;;;;7.95;1.20;;;7.40;87.30;;;;;;9178606;19;20479;-70
2024/02/23 08:27:46;;;;;;;6.78;1.13;;;7.50;87.30;;;;;;9180472;19;20887;-70
2024/02/23 08:30:53;;;;;;;6.97;1.13;;;7.50;87.30;;;;;;9179304;19;20017;-70
2024/02/23 08:33:59;;;;;;;10.10;1.52;;;7.50;87.30;;;;;;9179899;19;20051;-70
2024/02/23 08:37:07;;;;;;;5.60;1.13;;;7.50;87.10;;;;;;9180403;19;20019;-70
2024/02/23 08:40:15;;;;;;;4.20;1.05;;;7.50;87.10;;;;;;9177749;19;20022;-70
2024/02/23 08:43:23;;;;;;;7.55;1.20;;;7.50;87.10;;;;;;9179570;19;20025;-70
2024/02/23 08:46:28;;;;;;;7.38;2.03;;;7.60;87.10;;;;;;9173867;19;20019;-70
2024/02/23 08:49:36;;;;;;;4.50;0.90;;;7.60;87.00;;;;;;9176869;19;20374;-70
2024/02/23 08:52:41;;;;;;;5.38;1.30;;;7.60;86.90;;;;;;9175272;19;20022;-70
2024/02/23 08:55:51;;;;;;;10.35;2.50;;;7.60;86.70;;;;;;9178414;19;20014;-70
2024/02/23 08:58:57;;;;;;;4.80;1.27;;;7.70;86.70;;;;;;9172774;19;20490;-70
2024/02/23 09:02:05;;;;;;;8.55;1.40;;;7.70;86.90;;;;;;9178604;19;20011;-70
2024/02/23 09:05:11;;;;;;;6.00;1.30;;;7.70;86.80;;;;;;9178339;19;20842;-70
2024/02/23 09:08:18;;;;;;;7.03;1.15;;;7.70;86.70;;;;;;9177203;19;20029;-70
2024/02/23 09:11:27;;;;;;;5.28;1.33;;;7.70;86.60;;;;;;9177816;19;20074;-70
2024/02/23 09:14:37;;;;;;;5.90;1.27;;;7.80;86.90;;;;;;9173937;19;20372;-70
2024/02/23 09:17:43;;;;;;;5.35;1.05;;;7.90;86.60;;;;;;9177938;19;20018;-70
2024/02/23 09:20:51;;;;;;;4.20;1.05;;;7.90;86.70;;;;;;9175422;19;20392;-70
2024/02/23 09:23:57;;;;;;;7.45;1.10;;;8.00;86.80;;;;;;9175656;19;20033;-70
2024/02/23 09:27:07;;;;;;;7.85;1.23;;;7.90;86.40;;;;;;9177529;19;20022;-70
2024/02/23 09:30:15;;;;;;;6.20;1.52;;;8.00;86.50;;;;;;9177231;19;20019;-70
2024/02/23 09:33:23;;;;;;;9.73;1.38;;;8.10;86.40;;;;;;9176494;19;20373;-71
2024/02/23 09:36:30;;;;;;;5.32;1.55;;;8.20;86.50;;;;;;9174736;19;20594;-70
2024/02/23 09:39:37;;;;;;;13.27;1.92;;;8.20;86.30;;;;;;9175100;19;20492;-70
2024/02/23 09:42:51;;;;;;;5.57;1.13;;;8.20;86.10;;;;;;9175744;19;20019;-70
2024/02/23 09:45:59;;;;;;;4.95;1.55;;;8.30;85.90;;;;;;9174422;19;20025;-70
2024/02/23 09:49:06;;;;;;;5.15;1.10;;;8.30;86.00;;;;;;9176609;19;20022;-70
2024/02/23 09:52:15;;;;;;;3.83;0.98;;;8.30;86.00;;;;;;9176988;19;20369;-70
2024/02/23 09:55:21;;;;;;;7.20;1.25;;;8.40;86.00;;;;;;9175426;19;20057;-70
2024/02/23 09:58:32;;;;;;;6.68;1.15;;;8.40;85.80;;;;;;9171096;19;20019;-70
2024/02/23 10:01:38;;;;;;;2.40;0.82;;;8.50;85.70;;;;;;9170957;19;20365;-70
2024/02/23 10:04:46;;;;;;;6.45;1.10;;;8.50;85.80;;;;;;9173528;19;20014;-70
2024/02/23 10:07:53;;;;;;;4.95;0.98;;;8.50;85.60;;;;;;9175237;19;20392;-70
2024/02/23 10:11:04;;;;;;;8.23;1.77;;;8.60;85.60;;;;;;9173181;19;21028;-72
2024/02/23 10:14:13;;;;;;;11.13;1.88;;;8.60;85.40;;;;;;9177081;19;20024;-71
2024/02/23 10:17:22;;;;;;;6.35;1.55;;;8.60;85.30;;;;;;9173575;19;20033;-69
2024/02/23 10:20:28;;;;;;;7.95;1.65;;;8.60;85.70;;;;;;9169634;19;20027;-70
2024/02/23 10:23:36;;;;;;;8.00;1.50;;;8.60;85.20;;;;;;9175788;19;20350;-70
2024/02/23 10:26:42;;;;;;;7.72;1.27;;;8.60;85.20;;;;;;9175399;19;20250;-69
2024/02/23 10:29:55;;;;;;;10.52;1.25;;;8.60;84.90;;;;;;9175411;19;20022;-70
2024/02/23 10:33:01;;;;;;;4.00;1.23;;;8.60;84.80;;;;;;9175816;19;20014;-70
2024/02/23 10:36:11;;;;;;;5.35;1.10;;;8.60;84.90;;;;;;9172153;19;20017;-69
2024/02/23 10:39:19;;;;;;;6.65;1.20;;;8.60;85.00;;;;;;9172917;19;20015;-69
2024/02/23 10:42:33;;;;;;;4.43;1.23;;;8.50;84.50;;;;;;9167204;19;20370;-69
2024/02/23 10:45:42;;;;;;;2.72;0.80;;;8.60;84.60;;;;;;9174385;19;20016;-69
2024/02/23 10:48:52;;;;;;;5.47;0.73;;;8.60;84.50;;;;;;9170909;19;20029;-69
2024/02/23 10:51:57;;;;;;;3.08;1.17;;;8.60;84.70;;;;;;9173708;19;20498;-69
2024/02/23 10:55:06;;;;;;;3.40;0.80;;;8.60;84.50;;;;;;9172770;19;20034;-69
2024/02/23 10:58:15;;;;;;;10.60;1.27;;;8.60;84.50;;;;;;9170118;19;20031;-69
2024/02/23 11:01:28;;;;;;;4.82;1.08;;;8.60;84.50;;;;;;9171662;19;20021;-69
2024/02/23 11:04:36;;;;;;;5.85;1.25;;;8.60;84.60;;;;;;9173871;19;20566;-69
2024/02/23 11:07:44;;;;;;;3.78;1.33;;;8.60;84.40;;;;;;9175568;19;20023;-69
2024/02/23 11:10:53;;;;;;;6.63;1.10;;;8.60;85.10;;;;;;9180602;19;20017;-69
2024/02/23 11:14:04;;;;;;;6.00;1.58;;;8.50;84.40;;;;;;9178664;19;20018;-69
2024/02/23 11:17:21;;;;;;;4.28;1.52;;;8.60;84.50;;;;;;9179905;19;20019;-69
2024/02/23 11:20:37;;;;;;;8.98;1.73;;;8.60;84.50;;;;;;9180215;19;20480;-70
2024/02/23 11:23:48;;;;;;;7.95;1.15;;;8.50;84.50;;;;;;9182692;19;20022;-70
2024/02/23 11:27:07;;;;;;;8.07;1.00;;;8.60;84.50;;;;;;9179702;19;20372;-69
2024/02/23 11:30:14;;;;;;;5.90;1.42;;;8.50;84.50;;;;;;9180561;19;20014;-70
2024/02/23 11:33:31;;;;;;;6.97;1.10;;;8.50;84.50;;;;;;9181568;19;20366;-69
2024/02/23 11:36:38;;;;;;;13.23;1.75;;;8.50;84.40;;;;;;9181316;19;20010;-71
2024/02/23 11:39:46;;;;;;;6.88;1.23;;;8.50;84.60;;;;;;9180018;19;20010;-69
2024/02/23 11:42:54;;;;;;;8.70;1.15;;;8.50;84.50;;;;;;9175267;19;20019;-69
2024/02/23 11:46:01;;;;;;;8.57;2.80;;;8.50;84.80;;;;;;9179603;19;20014;-70
2024/02/23 11:49:09;;;;;;;9.02;1.23;;;8.50;84.50;;;;;;9178075;19;20484;-69
2024/02/23 11:52:17;;;;;;;2.42;0.98;;;8.40;84.50;;;;;;9181087;19;20037;-70
2024/02/23 11:55:23;;;;;;;12.98;1.73;;;8.40;84.50;;;;;;9182136;19;20018;-70
2024/02/23 11:58:32;;;;;;;6.93;0.82;;;8.40;84.60;;;;;;9174908;19;20006;-70
2024/02/23 12:01:37;;;;;;;9.73;1.27;;;8.30;84.70;;;;;;9180105;19;20019;-70
2024/02/23 12:04:47;;;;;;;2.85;1.13;;;8.30;84.80;;;;;;9178401;19;20006;-70
2024/02/23 12:07:53;;;;;;;7.05;0.90;;;8.40;84.90;;;;;;9179031;19;20598;-70
2024/02/23 12:11:08;;;;;;;4.60;1.13;;;8.30;84.90;;;;;;9175854;19;20022;-70
2024/02/23 12:14:18;;;;;;;3.03;0.90;;;8.40;85.00;;;;;;9178925;19;20007;-70
2024/02/23 12:17:27;;;;;;;3.58;0.77;;;8.30;85.00;;;;;;9179705;19;20360;-70
2024/02/23 12:20:38;;;;;;;7.13;1.17;;;8.40;85.00;;;;;;9181503;19;20018;-70
2024/02/23 12:23:48;;;;;;;3.45;1.05;;;8.30;84.80;;;;;;9178625;19;20033;-70
2024/02/23 12:26:56;;;;;;;6.07;1.58;;;8.80;86.00;;;;;;9178893;19;20006;-71
2024/02/23 12:30:04;;;;;;;6.18;1.50;;;8.40;85.00;;;;;;9179861;19;20041;-70
2024/02/23 12:33:12;;;;;;;2.65;1.13;;;7.60;84.40;;;;;;9179216;19;20025;-70
2024/02/23 12:36:22;;;;;;;7.25;1.30;;;8.50;85.00;;;;;;9180599;19;20496;-71
2024/02/23 12:39:28;;;;;;;7.03;1.17;;;8.50;85.00;;;;;;9177945;19;20029;-71
2024/02/23 12:42:41;;;;;;;4.60;1.00;;;8.40;84.90;;;;;;9178923;19;20026;-70
2024/02/23 12:45:49;;;;;;;7.68;1.10;;;8.60;85.10;;;;;;9180913;19;20021;-70
2024/02/23 12:48:56;;;;;;;4.20;1.20;;;8.60;85.20;;;;;;9179692;19;20023;-70
2024/02/23 12:52:04;;;;;;;3.72;1.10;;;8.50;85.10;;;;;;9179283;19;20022;-70
2024/02/23 12:55:14;;;;;;;10.52;1.70;;;8.50;85.00;;;;;;9179744;19;20373;-73
2024/02/23 12:58:21;;;;;;;3.53;1.20;;;8.50;85.30;;;;;;9175050;19;20044;-70
2024/02/23 13:01:29;;;;;;;1.73;1.02;;;8.50;85.40;;;;;;9178365;19;20014;-70
2024/02/23 13:04:38;;;;;;;5.25;1.08;;;8.50;85.20;;;;;;9176981;19;20014;-70
2024/02/23 13:07:49;;;;;;;11.45;2.10;;;8.60;85.60;;;;;;9177831;19;20490;-70
2024/02/23 13:10:56;;;;;;;6.22;1.17;;;8.70;85.40;;;;;;9179168;19;20010;-70
2024/02/23 13:14:04;;;;;;;5.10;2.45;;;8.70;85.50;;;;;;9178532;19;20025;-70
2024/02/23 13:17:09;;;;;;;4.95;1.20;;;8.80;85.50;;;;;;9176124;19;20369;-68
2024/02/23 13:20:17;;;;;;;5.45;1.25;;;8.80;85.40;;;;;;9177538;19;20010;-69
2024/02/23 13:23:27;;;;;;;5.93;1.33;;;8.90;85.20;;;;;;9174645;19;20019;-68
2024/02/23 13:26:34;;;;;;;6.68;1.20;;;8.90;85.10;;;;;;9177477;19;20023;-68
2024/02/23 13:29:40;;;;;;;6.65;1.73;;;9.00;85.10;;;;;;9175079;19;20381;-68
2024/02/23 13:32:47;;;;;;;7.55;1.52;;;9.00;84.90;;;;;;9173805;19;20010;-69
2024/02/23 13:35:54;;;;;;;3.60;1.00;;;9.00;84.90;;;;;;9175881;19;20019;-68
2024/02/23 13:39:05;;;;;;;7.80;1.58;;;9.00;85.40;;;;;;9177783;19;20017;-68
2024/02/23 13:42:10;;;;;;;3.33;1.10;;;9.00;85.00;;;;;;9176331;19;20147;-68
2024/02/23 13:45:19;;;;;;;2.85;0.80;;;9.00;84.90;;;;;;9176312;19;20364;-69
2024/02/23 13:48:24;;;;;;;7.82;1.30;;;9.10;84.90;;;;;;9175417;19;20026;-68
2024/02/23 13:51:32;;;;;;;5.50;0.93;;;9.10;85.00;;;;;;9177148;19;20029;-69
2024/02/23 13:54:40;;;;;;;7.80;1.33;;;9.10;84.90;;;;;;9176964;19;20399;-68
2024/02/23 13:57:48;;;;;;;3.97;1.10;;;9.10;84.90;;;;;;9171592;19;20014;-68
2024/02/23 14:00:54;;;;;;;5.75;1.17;;;9.10;85.00;;;;;;9175881;19;20025;-69
2024/02/23 14:04:02;;;;;;;5.18;1.42;;;9.10;84.80;;;;;;9173233;19;20014;-68
2024/02/23 14:07:09;;;;;;;6.43;2.25;;;9.10;84.90;;;;;;9176850;19;20022;-68
2024/02/23 14:10:20;;;;;;;11.90;1.30;;;9.20;84.90;;;;;;9176038;19;20014;-68
2024/02/23 14:13:25;;;;;;;7.25;1.08;;;9.20;84.90;;;;;;9175086;19;20022;-69
2024/02/23 14:16:33;;;;;;;3.88;1.10;;;9.30;85.20;;;;;;9176002;19;20019;-68
2024/02/23 14:19:39;;;;;;;7.05;0.88;;;9.20;84.80;;;;;;9173757;19;20452;-68
2024/02/23 14:22:46;;;;;;;4.63;0.98;;;9.30;84.80;;;;;;9174962;19;20018;-68
2024/02/23 14:25:54;;;;;;;9.00;1.30;;;9.30;84.60;;;;;;9175540;19;20048;-68
2024/02/23 14:29:02;;;;;;;3.63;1.10;;;9.30;84.70;;;;;;9175138;19;20043;-69
2024/02/23 14:32:08;;;;;;;3.20;1.10;;;9.30;84.50;;;;;;9170957;19;20018;-68
2024/02/23 14:35:15;;;;;;;5.80;1.20;;;9.30;84.60;;;;;;9172830;19;20018;-68
2024/02/23 14:38:21;;;;;;;8.95;1.50;;;9.30;84.40;;;;;;9174689;19;20142;-68
2024/02/23 14:41:31;;;;;;;6.35;1.17;;;9.30;84.50;;;;;;9175269;19;20022;-69
2024/02/23 14:44:37;;;;;;;3.17;0.95;;;9.30;84.80;;;;;;9173343;19;20081;-68
2024/02/23 14:47:45;;;;;;;13.73;1.73;;;9.30;84.30;;;;;;9174417;19;20010;-68
2024/02/23 14:50:51;;;;;;;5.30;1.80;;;9.30;84.30;;;;;;9175395;19;20017;-68
2024/02/23 14:53:59;;;;;;;5.55;1.02;;;9.30;84.30;;;;;;9174650;19;20411;-68
2024/02/23 14:57:07;;;;;;;6.30;1.50;;;9.20;84.20;;;;;;9174730;19;20014;-68
2024/02/23 15:00:16;;;;;;;3.50;1.40;;;9.20;84.20;;;;;;9174386;19;20014;-69
2024/02/23 15:03:22;;;;;;;1.90;0.95;;;9.20;84.30;;;;;;9174218;19;20011;-68
2024/02/23 15:06:29;;;;;;;3.67;0.98;;;9.20;84.30;;;;;;9175201;19;20018;-68
2024/02/23 15:09:35;;;;;;;5.72;1.10;;;9.20;84.20;;;;;;9173356;19;20021;-68
2024/02/23 15:12:48;;;;;;;5.80;1.48;;;9.20;84.20;;;;;;9174255;19;20025;-68
2024/02/23 15:15:56;;;;;;;6.65;1.83;;;9.20;84.20;;;;;;9173993;19;20032;-68
2024/02/23 15:19:03;;;;;;;5.97;1.13;;;9.20;84.20;;;;;;9173770;19;20051;-69
2024/02/23 15:22:14;;;;;;;9.35;1.10;;;9.20;84.10;;;;;;9173726;19;20473;-68
2024/02/23 15:25:22;;;;;;;3.05;1.00;;;9.20;84.20;;;;;;9171459;19;20010;-68
2024/02/23 15:28:30;;;;;;;4.53;0.90;;;9.20;84.10;;;;;;9171570;19;20090;-68
2024/02/23 15:31:39;;;;;;;5.13;1.38;;;9.30;84.30;;;;;;9170391;19;20481;-68
2024/02/23 15:34:45;;;;;;;8.32;1.95;;;9.20;84.20;;;;;;9172136;19;20014;-68
2024/02/23 15:37:53;;;;;;;5.45;0.98;;;9.30;84.30;;;;;;9170226;19;20579;-68
2024/02/23 15:40:59;;;;;;;7.07;1.35;;;9.20;84.20;;;;;;9171241;19;20030;-68
2024/02/23 15:44:09;;;;;;;6.32;1.40;;;9.20;84.10;;;;;;9168876;19;20025;-68
2024/02/23 15:47:14;;;;;;;5.03;1.30;;;9.20;84.00;;;;;;9170700;19;20048;-68
2024/02/23 15:50:22;;;;;;;8.85;1.48;;;9.20;84.20;;;;;;9171619;19;20019;-68
2024/02/23 15:53:48;;;;;;;2.88;1.20;;;9.20;84.20;;;;;;9175499;19;20090;-69
2024/02/23 15:56:55;;;;;;;6.43;1.20;;;9.20;84.20;;;;;;9180643;19;20015;-68
2024/02/23 16:00:04;;;;;;;6.35;1.80;;;9.20;84.10;;;;;;9176329;19;20011;-68
2024/02/23 16:03:12;;;;;;;6.35;1.70;;;9.20;84.50;;;;;;9178549;19;20021;-69
2024/02/23 16:06:18;;;;;;;5.55;1.80;;;9.10;84.10;;;;;;9149910;19;20021;-68
2024/02/23 16:09:25;;;;;;;5.72;0.98;;;9.10;84.30;;;;;;9163291;19;20022;-68
2024/02/23 16:12:31;;;;;;;3.80;0.70;;;9.10;85.00;;;;;;9164876;19;20019;-68
2024/02/23 16:15:41;;;;;;;4.00;1.00;;;9.00;84.00;;;;;;9175744;19;20018;-69
2024/02/23 16:18:46;;;;;;;4.55;1.02;;;9.00;84.10;;;;;;9178569;19;20014;-69
2024/02/23 16:21:54;;;;;;;5.00;1.00;;;9.00;84.20;;;;;;9180287;19;20082;-69
2024/02/23 16:25:00;;;;;;;4.28;0.93;;;8.90;84.20;;;;;;9176805;19;20025;-69
2024/02/23 16:28:13;;;;;;;2.55;1.00;;;8.90;84.30;;;;;;9178324;19;20509;-69